Time;durP1;ratioP1;P1;durP2;ratioP2;P2;SDS_P1;SDS_P2;PMS_P1;PMS_P2;Temp;Humidity;BMP_temperature;BMP_pressure;BME280_temperature;BME280_humidity;BME280_pressure;Samples;Min_cycle;Max_cycle;Signal;HPM_P1;HPM_P2
2023/12/27 00:02:14;;;;;;;;;;;7.50;99.90;;;;;;2617043;47;19947;-74
2023/12/27 00:04:43;;;;;;;;;;;7.40;99.90;;;;;;2617145;54;19975;-74
2023/12/27 00:07:13;;;;;;;;;;;7.40;99.90;;;;;;2617929;54;19958;-73
2023/12/27 00:09:43;;;;;;;;;;;7.40;99.90;;;;;;2616702;47;19971;-73
2023/12/27 00:12:16;;;;;;;;;;;7.40;99.90;;;;;;2617465;54;19939;-75
2023/12/27 00:14:45;;;;;;;;;;;7.40;99.90;;;;;;2614903;54;20497;-74
2023/12/27 00:17:15;;;;;;;;;;;8.70;99.90;;;;;;2617035;54;20037;-74
2023/12/27 00:19:47;;;;;;;;;;;7.50;99.90;;;;;;2618171;47;19946;-74
2023/12/27 00:22:17;;;;;;;;;;;7.40;99.90;;;;;;2617131;54;19953;-73
2023/12/27 00:24:46;;;;;;;;;;;7.30;99.90;;;;;;2618029;46;19946;-74
2023/12/27 00:27:19;;;;;;;;;;;7.50;99.90;;;;;;2622840;47;19957;-74
2023/12/27 00:29:49;;;;;;;;;;;7.40;99.90;;;;;;2622328;54;20449;-74
2023/12/27 00:32:18;;;;;;;;;;;7.30;99.90;;;;;;2621545;54;19988;-74
2023/12/27 00:34:50;;;;;;;;;;;7.40;99.90;;;;;;2620736;54;19950;-74
2023/12/27 00:37:19;;;;;;;;;;;7.40;99.90;;;;;;2619291;47;19946;-75
2023/12/27 00:39:49;;;;;;;;;;;7.40;99.90;;;;;;2619190;54;19947;-74
2023/12/27 00:42:22;;;;;;;;;;;7.40;99.90;;;;;;2616772;54;19958;-74
2023/12/27 00:44:52;;;;;;;;;;;7.50;99.90;;;;;;2616615;54;19946;-75
2023/12/27 00:47:21;;;;;;;;;;;7.50;99.90;;;;;;2617611;54;19946;-74
2023/12/27 00:49:51;;;;;;;;;;;7.50;99.90;;;;;;2618759;47;19938;-74
2023/12/27 00:52:21;;;;;;;;;;;7.50;99.90;;;;;;2616411;47;19953;-74
2023/12/27 00:54:50;;;;;;;;;;;7.50;99.90;;;;;;2618478;54;19946;-73
2023/12/27 00:57:23;;;;;;;;;;;7.50;99.90;;;;;;2618379;54;20053;-74
2023/12/27 00:59:52;;;;;;;;;;;7.50;99.90;;;;;;2620667;47;19947;-73
2023/12/27 01:02:22;;;;;;;;;;;7.60;99.90;;;;;;2616009;47;20061;-73
2023/12/27 01:04:52;;;;;;;;;;;7.60;99.90;;;;;;2617873;54;20426;-73
2023/12/27 01:07:23;;;;;;;;;;;7.50;99.90;;;;;;2617893;47;19951;-73
2023/12/27 01:09:52;;;;;;;;;;;7.50;99.90;;;;;;2613947;47;19938;-72
2023/12/27 01:12:25;;;;;;;;;;;7.50;99.90;;;;;;2618709;47;20437;-74
2023/12/27 01:14:54;;;;;;;;;;;7.50;99.90;;;;;;2617131;54;19947;-74
2023/12/27 01:17:24;;;;;;;;;;;7.50;99.90;;;;;;2618158;46;19959;-73
2023/12/27 01:19:54;;;;;;;;;;;7.40;99.90;;;;;;2617695;39;20376;-74
2023/12/27 01:22:23;;;;;;;;;;;7.40;99.90;;;;;;2617623;47;20007;-74
2023/12/27 01:24:53;;;;;;;;;;;7.50;99.90;;;;;;2616751;47;20069;-74
2023/12/27 01:27:25;;;;;;;;;;;7.40;99.90;;;;;;2618525;47;19953;-73
2023/12/27 01:29:55;;;;;;;;;;;7.40;99.90;;;;;;2616178;46;19966;-74
2023/12/27 01:32:25;;;;;;;;;;;7.30;99.90;;;;;;2617533;54;19973;-74
2023/12/27 01:34:54;;;;;;;;;;;7.30;99.90;;;;;;2616967;39;20322;-73
2023/12/27 01:37:24;;;;;;;;;;;7.30;99.90;;;;;;2617678;54;19961;-73
2023/12/27 01:39:54;;;;;;;;;;;7.30;99.90;;;;;;2618278;54;19946;-73
2023/12/27 01:42:26;;;;;;;;;;;7.30;99.90;;;;;;2617207;54;19946;-73
2023/12/27 01:44:56;;;;;;;;;;;7.40;99.90;;;;;;2617176;54;20061;-73
2023/12/27 01:47:25;;;;;;;;;;;7.40;99.90;;;;;;2622139;49;19958;-75
2023/12/27 01:49:55;;;;;;;;;;;7.30;99.90;;;;;;2618907;54;19947;-73
2023/12/27 01:52:26;;;;;;;;;;;7.40;99.90;;;;;;2616737;54;19939;-73
2023/12/27 01:54:55;;;;;;;;;;;7.40;99.90;;;;;;2617984;47;20472;-72
2023/12/27 01:57:28;;;;;;;;;;;7.40;99.90;;;;;;2591702;54;19947;-75
2023/12/27 01:59:57;;;;;;;;;;;7.40;99.90;;;;;;2623206;54;20046;-74
2023/12/27 02:02:27;;;;;;;;;;;7.20;99.90;;;;;;2621338;54;19947;-73
2023/12/27 02:04:57;;;;;;;;;;;7.20;99.90;;;;;;2620495;47;20471;-73
2023/12/27 02:07:27;;;;;;;;;;;7.20;99.90;;;;;;2620077;47;19951;-74
2023/12/27 02:09:59;;;;;;;;;;;7.20;99.90;;;;;;2592825;47;19947;-78
2023/12/27 02:12:33;;;;;;;;;;;7.20;99.90;;;;;;2620981;47;19951;-77
2023/12/27 02:15:03;;;;;;;;;;;7.20;99.90;;;;;;2617618;47;20760;-78
2023/12/27 02:17:34;;;;;;;;;;;7.20;99.90;;;;;;2619330;47;20008;-76
2023/12/27 02:20:04;;;;;;;;;;;7.30;99.90;;;;;;2619178;47;19946;-77
2023/12/27 02:22:35;;;;;;;;;;;7.30;99.90;;;;;;2618760;47;19946;-77
2023/12/27 02:25:08;;;;;;;;;;;7.30;99.90;;;;;;2620172;31;20467;-79
2023/12/27 02:27:38;;;;;;;;;;;7.40;99.90;;;;;;2620936;54;19996;-79
2023/12/27 02:30:09;;;;;;;;;;;7.40;99.90;;;;;;2620453;54;20630;-77
2023/12/27 02:32:39;;;;;;;;;;;7.40;99.90;;;;;;2619698;54;19946;-77
2023/12/27 02:35:10;;;;;;;;;;;7.40;99.90;;;;;;2619298;47;19985;-77
2023/12/27 02:37:40;;;;;;;;;;;7.40;99.90;;;;;;2620314;39;20344;-77
2023/12/27 02:40:13;;;;;;;;;;;7.40;99.90;;;;;;2620433;39;20355;-78
2023/12/27 02:42:43;;;;;;;;;;;7.40;99.90;;;;;;2619202;47;19942;-79
2023/12/27 02:45:13;;;;;;;;;;;7.50;99.90;;;;;;2618114;47;19955;-78
2023/12/27 02:47:43;;;;;;;;;;;7.60;99.90;;;;;;2618644;47;19955;-77
2023/12/27 02:50:12;;;;;;;;;;;7.60;99.90;;;;;;2619234;54;19946;-77
2023/12/27 02:52:42;;;;;;;;;;;7.60;99.90;;;;;;2619230;47;20053;-79
2023/12/27 02:55:15;;;;;;;;;;;7.50;99.90;;;;;;2619494;54;20043;-77
2023/12/27 02:57:44;;;;;;;;;;;7.50;99.90;;;;;;2623446;47;19995;-77
2023/12/27 03:00:15;;;;;;;;;;;7.50;99.90;;;;;;2623495;47;19947;-77
2023/12/27 03:02:45;;;;;;;;;;;7.50;99.90;;;;;;2621401;47;19946;-77
2023/12/27 03:05:15;;;;;;;;;;;7.50;99.90;;;;;;2619799;47;19939;-77
2023/12/27 03:07:45;;;;;;;;;;;7.50;99.90;;;;;;2623654;47;19939;-77
2023/12/27 03:10:17;;;;;;;;;;;7.50;99.90;;;;;;2620272;46;19958;-78
2023/12/27 03:12:47;;;;;;;;;;;7.60;99.90;;;;;;2619358;47;19939;-77
2023/12/27 03:26:07;;;;;;;;;;;7.60;99.90;;;;;;2608599;54;19975;-76
2023/12/27 03:28:37;;;;;;;;;;;7.60;99.90;;;;;;2621444;47;19954;-76
2023/12/27 03:31:07;;;;;;;;;;;7.60;99.90;;;;;;2620761;54;19969;-78
2023/12/27 03:33:37;;;;;;;;;;;7.60;99.90;;;;;;2619013;47;19945;-77
2023/12/27 03:36:07;;;;;;;;;;;7.60;99.90;;;;;;2619584;47;19946;-77
2023/12/27 03:38:37;;;;;;;;;;;7.60;99.90;;;;;;2619244;54;19962;-78
2023/12/27 03:41:11;;;;;;;;;;;7.60;99.90;;;;;;2619274;47;19939;-77
2023/12/27 03:43:41;;;;;;;;;;;7.60;99.90;;;;;;2619546;39;20403;-78
2023/12/27 03:46:11;;;;;;;;;;;7.60;99.90;;;;;;2622630;54;19943;-79
2023/12/27 03:48:41;;;;;;;;;;;7.60;99.90;;;;;;2624923;54;19939;-77
2023/12/27 03:51:11;;;;;;;;;;;7.60;99.90;;;;;;2620134;47;19947;-78
2023/12/27 03:53:41;;;;;;;;;;;7.60;99.90;;;;;;2618697;54;19946;-78
2023/12/27 03:56:13;;;;;;;;;;;7.70;99.90;;;;;;2618716;47;19958;-79
2023/12/27 03:58:44;;;;;;;;;;;7.70;99.90;;;;;;2617986;47;19955;-78
2023/12/27 04:01:14;;;;;;;;;;;7.70;99.90;;;;;;2619555;47;19939;-78
2023/12/27 04:03:44;;;;;;;;;;;7.70;99.90;;;;;;2620729;54;19992;-79
2023/12/27 04:06:18;;;;;;;;;;;7.70;99.90;;;;;;2619213;47;19954;-78
2023/12/27 04:08:49;;;;;;;;;;;7.70;99.90;;;;;;2619312;47;19946;-78
2023/12/27 04:11:21;;;;;;;;;;;7.80;99.90;;;;;;2619235;39;20368;-77
2023/12/27 04:13:51;;;;;;;;;;;7.80;99.90;;;;;;2618567;47;19977;-78
2023/12/27 04:16:21;;;;;;;;;;;7.80;99.90;;;;;;2619132;54;19950;-78
2023/12/27 04:18:51;;;;;;;;;;;7.80;99.90;;;;;;2619015;54;20452;-78
2023/12/27 04:21:21;;;;;;;;;;;7.80;99.90;;;;;;2618923;54;19953;-78
2023/12/27 04:23:51;;;;;;;;;;;7.80;99.90;;;;;;2619360;54;20486;-78
2023/12/27 04:26:23;;;;;;;;;;;7.80;99.90;;;;;;2623549;39;20684;-79
2023/12/27 04:28:53;;;;;;;;;;;7.80;99.90;;;;;;2620586;54;19954;-80
2023/12/27 04:31:23;;;;;;;;;;;7.90;99.90;;;;;;2623609;54;19962;-78
2023/12/27 04:33:53;;;;;;;;;;;7.90;99.90;;;;;;2620920;47;19966;-79
2023/12/27 04:36:23;;;;;;;;;;;7.90;99.90;;;;;;2625229;50;19938;-79
2023/12/27 04:38:53;;;;;;;;;;;7.90;99.90;;;;;;2623370;47;19945;-78
2023/12/27 04:41:25;;;;;;;;;;;7.90;99.90;;;;;;2620262;46;19938;-78
2023/12/27 04:43:55;;;;;;;;;;;7.90;99.90;;;;;;2626047;47;19946;-79
2023/12/27 04:46:25;;;;;;;;;;;8.00;99.90;;;;;;2622265;39;19993;-78
2023/12/27 04:48:55;;;;;;;;;;;8.00;99.90;;;;;;2619633;47;20066;-79
2023/12/27 04:51:25;;;;;;;;;;;7.90;99.90;;;;;;2619260;54;19947;-78
2023/12/27 04:53:58;;;;;;;;;;;8.00;99.90;;;;;;2619771;47;19953;-78
2023/12/27 04:56:31;;;;;;;;;;;8.00;99.90;;;;;;2620623;54;19985;-78
2023/12/27 04:59:00;;;;;;;;;;;8.00;99.90;;;;;;2620477;54;19958;-78
2023/12/27 05:01:30;;;;;;;;;;;8.00;99.90;;;;;;2621827;54;19938;-79
2023/12/27 05:04:00;;;;;;;;;;;8.00;99.90;;;;;;2618908;54;19950;-78
2023/12/27 05:06:30;;;;;;;;;;;8.00;99.90;;;;;;2620987;47;19938;-78
2023/12/27 05:09:04;;;;;;;;;;;8.10;99.90;;;;;;2618960;50;20468;-78
2023/12/27 05:11:37;;;;;;;;;;;8.10;99.90;;;;;;2620251;47;19946;-79
2023/12/27 05:14:06;;;;;;;;;;;8.40;99.90;;;;;;2619404;39;20329;-78
2023/12/27 05:16:36;;;;;;;;;;;8.10;99.90;;;;;;2619155;47;19947;-79
2023/12/27 05:19:06;;;;;;;;;;;8.10;99.90;;;;;;2619039;47;19947;-79
2023/12/27 05:21:36;;;;;;;;;;;8.10;99.90;;;;;;2618919;47;20038;-78
2023/12/27 05:24:07;;;;;;;;;;;8.10;99.90;;;;;;2618708;54;19978;-77
2023/12/27 05:26:39;;;;;;;;;;;8.10;99.90;;;;;;2619325;54;19962;-78
2023/12/27 05:29:10;;;;;;;;;;;8.10;99.90;;;;;;2622404;39;20340;-77
2023/12/27 05:31:40;;;;;;;;;;;8.10;99.90;;;;;;2623840;54;20070;-77
2023/12/27 05:34:10;;;;;;;;;;;8.10;99.90;;;;;;2622434;46;19947;-77
2023/12/27 05:36:40;;;;;;;;;;;8.20;99.90;;;;;;2619114;47;20006;-78
2023/12/27 05:39:12;;;;;;;;;;;8.10;99.90;;;;;;2620950;47;19947;-79
2023/12/27 05:41:44;;;;;;;;;;;8.70;99.90;;;;;;2619295;54;19980;-79
2023/12/27 05:44:14;;;;;;;;;;;8.10;99.90;;;;;;2620869;46;19950;-78
2023/12/27 05:46:44;;;;;;;;;;;8.10;99.90;;;;;;2622518;54;19947;-78
2023/12/27 05:49:14;;;;;;;;;;;8.10;99.90;;;;;;2618415;47;19946;-78
2023/12/27 05:51:44;;;;;;;;;;;8.10;99.90;;;;;;2617421;47;19939;-77
2023/12/27 05:54:14;;;;;;;;;;;8.10;99.90;;;;;;2617286;47;20001;-77
2023/12/27 05:56:46;;;;;;;;;;;8.00;99.90;;;;;;2617536;47;19939;-77
2023/12/27 05:59:17;;;;;;;;;;;8.00;99.90;;;;;;2617817;47;20757;-77
2023/12/27 06:01:52;;;;;;;;;;;8.00;99.90;;;;;;2616699;47;20005;-78
2023/12/27 06:04:22;;;;;;;;;;;8.00;99.90;;;;;;2619308;47;19939;-79
2023/12/27 06:06:52;;;;;;;;;;;7.90;99.90;;;;;;2619758;47;19946;-78
2023/12/27 06:09:22;;;;;;;;;;;7.90;99.90;;;;;;2619993;39;20628;-78
2023/12/27 06:11:55;;;;;;;;;;;8.20;99.90;;;;;;2621987;54;19938;-78
2023/12/27 06:14:25;;;;;;;;;;;8.00;99.90;;;;;;2619327;54;20416;-77
2023/12/27 06:16:55;;;;;;;;;;;7.90;99.90;;;;;;2618328;46;19962;-77
2023/12/27 06:19:25;;;;;;;;;;;8.00;99.90;;;;;;2617834;54;20472;-78
2023/12/27 06:21:55;;;;;;;;;;;8.00;99.90;;;;;;2615510;54;19947;-78
2023/12/27 06:24:25;;;;;;;;;;;8.10;99.90;;;;;;2617483;47;19947;-78
2023/12/27 06:26:57;;;;;;;;;;;8.10;99.90;;;;;;2619198;54;20554;-77
2023/12/27 06:29:27;;;;;;;;;;;8.10;99.90;;;;;;2617955;47;19946;-78
2023/12/27 06:31:57;;;;;;;;;;;8.20;99.90;;;;;;2617754;54;19946;-77
2023/12/27 06:34:27;;;;;;;;;;;8.20;99.90;;;;;;2622097;47;19954;-77
2023/12/27 06:36:57;;;;;;;;;;;8.20;99.90;;;;;;2622083;54;19953;-77
2023/12/27 06:39:28;;;;;;;;;;;8.20;99.90;;;;;;2624858;54;19950;-78
2023/12/27 06:42:02;;;;;;;;;;;8.20;99.90;;;;;;2625638;48;20002;-79
2023/12/27 06:44:32;;;;;;;;;;;8.30;99.90;;;;;;2623409;47;19951;-78
2023/12/27 06:47:02;;;;;;;;;;;8.30;99.90;;;;;;2619958;47;19951;-79
2023/12/27 06:49:32;;;;;;;;;;;8.30;99.90;;;;;;2619516;47;19939;-78
2023/12/27 06:52:02;;;;;;;;;;;8.30;99.90;;;;;;2619190;47;19961;-78
2023/12/27 06:54:32;;;;;;;;;;;8.30;99.90;;;;;;2619695;47;19969;-78
2023/12/27 06:57:04;;;;;;;;;;;8.30;99.90;;;;;;2622847;47;19947;-79
2023/12/27 06:59:34;;;;;;;;;;;8.30;99.90;;;;;;2618837;47;19946;-79
2023/12/27 07:02:04;;;;;;;;;;;8.10;99.90;;;;;;2618557;47;19951;-78
2023/12/27 07:04:34;;;;;;;;;;;8.10;99.90;;;;;;2619159;54;19980;-78
2023/12/27 07:07:04;;;;;;;;;;;8.10;99.90;;;;;;2618929;47;19947;-78
2023/12/27 07:09:34;;;;;;;;;;;8.10;99.90;;;;;;2618882;54;19946;-79
2023/12/27 07:12:09;;;;;;;;;;;8.10;99.90;;;;;;2619786;54;20042;-78
2023/12/27 07:14:39;;;;;;;;;;;8.20;99.90;;;;;;2628070;54;19941;-78
2023/12/27 07:17:10;;;;;;;;;;;8.20;99.90;;;;;;2622908;47;19939;-78
2023/12/27 07:19:40;;;;;;;;;;;8.20;99.90;;;;;;2621031;54;19938;-79
2023/12/27 07:22:10;;;;;;;;;;;8.30;99.90;;;;;;2620299;54;19938;-79
2023/12/27 07:24:40;;;;;;;;;;;8.20;99.90;;;;;;2618650;47;19939;-79
2023/12/27 07:27:13;;;;;;;;;;;8.30;99.90;;;;;;2619710;54;19985;-78
2023/12/27 07:29:42;;;;;;;;;;;8.40;99.90;;;;;;2620651;47;19947;-79
2023/12/27 07:34:48;;;;;;;;;;;8.40;99.90;;;;;;2600286;54;19973;-79
2023/12/27 07:37:17;;;;;;;;;;;8.40;99.90;;;;;;2618824;54;20022;-81
2023/12/27 07:39:47;;;;;;;;;;;8.40;99.90;;;;;;2620292;47;19951;-79
2023/12/27 07:42:20;;;;;;;;;;;8.30;99.90;;;;;;2618849;47;20070;-79
2023/12/27 07:44:50;;;;;;;;;;;8.30;99.90;;;;;;2619677;39;20380;-79
2023/12/27 07:47:23;;;;;;;;;;;8.30;99.90;;;;;;2621585;47;19939;-78
2023/12/27 07:52:28;;;;;;;;;;;8.40;99.90;;;;;;2617667;54;19939;-74
2023/12/27 07:54:58;;;;;;;;;;;8.40;99.90;;;;;;2617529;54;19945;-73
2023/12/27 07:57:30;;;;;;;;;;;8.40;99.90;;;;;;2616823;47;19938;-74
2023/12/27 08:00:00;;;;;;;;;;;8.40;99.90;;;;;;2614174;54;19945;-74
2023/12/27 08:02:30;;;;;;;;;;;8.50;99.90;;;;;;2616273;54;20437;-72
2023/12/27 08:05:00;;;;;;;;;;;8.50;99.90;;;;;;2614327;54;19947;-73
2023/12/27 08:07:29;;;;;;;;;;;8.50;99.90;;;;;;2619429;47;20025;-73
2023/12/27 08:09:59;;;;;;;;;;;8.50;99.90;;;;;;2623027;51;19939;-72
2023/12/27 08:12:32;;;;;;;;;;;8.50;99.90;;;;;;2624484;47;20026;-73
2023/12/27 08:15:02;;;;;;;;;;;8.50;99.90;;;;;;2622217;47;19938;-73
2023/12/27 08:17:32;;;;;;;;;;;8.50;99.90;;;;;;2621547;54;20705;-74
2023/12/27 08:20:04;;;;;;;;;;;8.50;99.90;;;;;;2620144;47;19939;-73
2023/12/27 08:22:34;;;;;;;;;;;8.50;99.90;;;;;;2621423;54;19939;-74
2023/12/27 08:25:05;;;;;;;;;;;8.60;99.90;;;;;;2618724;47;19945;-73
2023/12/27 08:27:38;;;;;;;;;;;8.50;99.90;;;;;;2616840;54;19950;-73
2023/12/27 08:30:08;;;;;;;;;;;8.60;99.90;;;;;;2617429;47;19981;-77
2023/12/27 08:32:38;;;;;;;;;;;8.50;99.90;;;;;;2617341;47;20046;-72
2023/12/27 08:35:08;;;;;;;;;;;8.60;99.90;;;;;;2617786;39;20382;-72
2023/12/27 08:37:37;;;;;;;;;;;8.60;99.90;;;;;;2616970;54;20045;-72
2023/12/27 08:40:09;;;;;;;;;;;8.60;99.90;;;;;;2615690;47;19939;-72
2023/12/27 08:42:41;;;;;;;;;;;8.60;99.90;;;;;;2618236;39;20353;-72
2023/12/27 08:45:11;;;;;;;;;;;8.60;99.90;;;;;;2622066;54;19939;-74
2023/12/27 08:47:41;;;;;;;;;;;8.60;99.90;;;;;;2618922;54;19985;-72
2023/12/27 08:50:11;;;;;;;;;;;8.60;99.90;;;;;;2617350;54;20042;-72
2023/12/27 08:52:41;;;;;;;;;;;8.70;99.90;;;;;;2616209;54;19954;-72
2023/12/27 08:55:12;;;;;;;;;;;8.70;99.90;;;;;;2616131;46;19947;-72
2023/12/27 08:57:45;;;;;;;;;;;8.70;99.90;;;;;;2618080;54;19938;-72
2023/12/27 09:00:18;;;;;;;;;;;8.70;99.90;;;;;;2618458;54;19947;-72
2023/12/27 09:02:48;;;;;;;;;;;8.70;99.90;;;;;;2622025;47;19939;-74
2023/12/27 09:05:18;;;;;;;;;;;8.80;99.90;;;;;;2623128;54;19953;-73
2023/12/27 09:07:48;;;;;;;;;;;8.80;99.90;;;;;;2619550;54;19946;-73
2023/12/27 09:10:17;;;;;;;;;;;8.80;99.90;;;;;;2619511;39;20501;-74
2023/12/27 09:12:50;;;;;;;;;;;7.70;99.90;;;;;;2618903;54;19946;-73
2023/12/27 09:15:19;;;;;;;;;;;8.90;99.90;;;;;;2617700;47;19946;-72
2023/12/27 09:17:52;;;;;;;;;;;8.90;99.90;;;;;;2611518;54;19946;-73
2023/12/27 09:20:22;;;;;;;;;;;9.10;99.90;;;;;;2604925;47;19946;-73
2023/12/27 09:22:51;;;;;;;;;;;9.10;99.90;;;;;;2605397;54;19946;-74
2023/12/27 09:25:21;;;;;;;;;;;9.00;99.90;;;;;;2604552;54;19978;-73
2023/12/27 09:27:55;;;;;;;;;;;9.20;99.90;;;;;;2606699;54;19954;-73
2023/12/27 09:30:25;;;;;;;;;;;9.10;99.90;;;;;;2606880;49;19946;-74
2023/12/27 09:32:55;;;;;;;;;;;9.10;99.90;;;;;;2605721;54;19967;-72
2023/12/27 09:35:25;;;;;;;;;;;9.20;99.90;;;;;;2607634;54;19958;-74
2023/12/27 09:37:54;;;;;;;;;;;9.20;99.90;;;;;;2606349;47;19946;-73
2023/12/27 09:40:24;;;;;;;;;;;9.20;99.90;;;;;;2605950;39;20676;-73
2023/12/27 09:42:58;;;;;;;;;;;9.30;99.90;;;;;;2606074;54;20476;-73
2023/12/27 09:45:30;;;;;;;;;;;9.30;99.90;;;;;;2604145;54;19946;-72
2023/12/27 09:48:00;;;;;;;;;;;9.30;99.90;;;;;;2605943;54;19950;-72
2023/12/27 09:50:30;;;;;;;;;;;9.30;99.90;;;;;;2604840;47;19953;-73
2023/12/27 09:53:02;;;;;;;;;;;9.30;99.90;;;;;;2606416;39;20384;-72
2023/12/27 09:55:32;;;;;;;;;;;9.30;99.90;;;;;;2606736;47;19946;-72
2023/12/27 09:58:05;;;;;;;;;;;9.40;99.90;;;;;;2608619;54;19947;-73
2023/12/27 10:00:35;;;;;;;;;;;9.30;99.90;;;;;;2607898;54;19946;-73
2023/12/27 10:03:06;;;;;;;;;;;9.30;99.90;;;;;;2606225;54;19947;-72
2023/12/27 10:05:42;;;;;;;;;;;9.30;99.90;;;;;;2606393;54;19955;-73
2023/12/27 10:08:12;;;;;;;;;;;9.30;99.90;;;;;;2606260;54;19978;-75
2023/12/27 10:10:42;;;;;;;;;;;9.30;99.90;;;;;;2607537;54;19954;-74
2023/12/27 10:13:15;;;;;;;;;;;8.90;99.90;;;;;;2612103;51;19947;-74
2023/12/27 10:15:44;;;;;;;;;;;10.20;99.90;;;;;;2607423;47;20441;-74
2023/12/27 10:18:14;;;;;;;;;;;9.50;99.90;;;;;;2607057;54;19985;-74
2023/12/27 10:20:46;;;;;;;;;;;9.50;99.90;;;;;;2610493;39;20388;-74
2023/12/27 10:23:16;;;;;;;;;;;9.10;99.90;;;;;;2608413;54;19970;-74
2023/12/27 10:25:46;;;;;;;;;;;9.50;99.90;;;;;;2608452;39;20423;-74
2023/12/27 10:28:18;;;;;;;;;;;9.50;99.90;;;;;;2606097;47;20441;-73
2023/12/27 10:30:48;;;;;;;;;;;9.20;99.90;;;;;;2607491;39;20326;-74
2023/12/27 10:33:19;;;;;;;;;;;9.50;99.90;;;;;;2605323;47;19968;-75
2023/12/27 10:35:56;;;;;;;;;;;9.50;99.90;;;;;;2606860;54;19968;-73
2023/12/27 10:38:26;;;;;;;;;;;9.50;99.90;;;;;;2606991;39;20174;-76
2023/12/27 10:40:56;;;;;;;;;;;9.60;99.90;;;;;;2605670;47;19954;-74
2023/12/27 10:43:28;;;;;;;;;;;9.60;99.90;;;;;;2606238;47;20422;-74
2023/12/27 10:45:58;;;;;;;;;;;9.60;99.90;;;;;;2606586;54;20033;-75
2023/12/27 10:48:33;;;;;;;;;;;9.40;99.90;;;;;;2605848;54;20445;-74
2023/12/27 10:51:03;;;;;;;;;;;9.50;99.90;;;;;;2605240;54;20441;-72
2023/12/27 10:53:35;;;;;;;;;;;9.60;99.90;;;;;;2605139;54;20014;-72
2023/12/27 10:56:05;;;;;;;;;;;9.60;99.90;;;;;;2604321;54;19946;-74
2023/12/27 10:58:39;;;;;;;;;;;9.60;99.90;;;;;;2606845;47;20429;-74
2023/12/27 11:01:10;;;;;;;;;;;9.60;99.90;;;;;;2607785;54;19950;-74
2023/12/27 11:03:40;;;;;;;;;;;9.70;99.90;;;;;;2609196;31;20420;-74
2023/12/27 11:06:10;;;;;;;;;;;9.70;99.90;;;;;;2608098;54;19946;-74
2023/12/27 11:08:43;;;;;;;;;;;9.70;99.90;;;;;;2606328;47;19946;-74
2023/12/27 11:11:14;;;;;;;;;;;9.70;99.90;;;;;;2606427;47;19973;-75
2023/12/27 11:13:47;;;;;;;;;;;9.70;99.90;;;;;;2606556;54;20523;-74
2023/12/27 11:16:19;;;;;;;;;;;9.70;99.90;;;;;;2610244;47;19950;-75
2023/12/27 11:18:50;;;;;;;;;;;9.20;99.90;;;;;;2606668;47;19954;-71
2023/12/27 11:21:20;;;;;;;;;;;9.80;99.90;;;;;;2609242;47;19970;-72
2023/12/27 11:23:50;;;;;;;;;;;9.80;99.90;;;;;;2607721;47;20449;-73
2023/12/27 11:26:20;;;;;;;;;;;10.50;99.90;;;;;;2607112;54;19953;-72
2023/12/27 11:28:52;;;;;;;;;;;9.90;99.90;;;;;;2610530;47;19939;-72
2023/12/27 11:31:22;;;;;;;;;;;9.90;99.90;;;;;;2607738;39;20561;-73
2023/12/27 11:33:53;;;;;;;;;;;10.00;99.90;;;;;;2609891;47;19950;-74
2023/12/27 11:36:23;;;;;;;;;;;9.70;99.90;;;;;;2610716;54;19950;-73
2023/12/27 19:52:43;;;;;;;;;;;10.10;99.90;;;;;;2631322;47;20283;-81
2023/12/27 19:55:14;;;;;;;;;;;7.30;99.90;;;;;;2629369;47;19943;-82
2023/12/27 19:57:44;;;;;;;;;;;7.20;99.90;;;;;;2628199;47;19951;-81
2023/12/27 20:00:16;;;;;;;;;;;7.20;99.90;;;;;;2628762;47;19943;-82
2023/12/27 20:02:46;;;;;;;;;;;7.20;99.90;;;;;;2628987;54;19973;-81
2023/12/27 20:05:15;;;;;;;;;;;7.20;99.90;;;;;;2629285;47;19958;-83
2023/12/27 20:07:48;;;;;;;;;;;7.30;99.90;;;;;;2628600;47;19939;-81
2023/12/27 20:10:18;;;;;;;;;;;7.10;99.90;;;;;;2629047;54;19967;-81
2023/12/27 20:12:48;;;;;;;;;;;7.60;99.90;;;;;;2628662;54;19943;-81
2023/12/27 20:15:18;;;;;;;;;;;7.00;99.90;;;;;;2628686;47;19947;-83
2023/12/27 20:17:48;;;;;;;;;;;7.10;99.90;;;;;;2628493;47;19950;-83
2023/12/27 20:20:19;;;;;;;;;;;7.00;99.90;;;;;;2629185;47;19981;-83
2023/12/27 20:22:52;;;;;;;;;;;7.00;99.90;;;;;;2636118;39;20803;-82
2023/12/27 20:25:22;;;;;;;;;;;6.90;99.90;;;;;;2629480;47;19939;-83
2023/12/27 20:27:52;;;;;;;;;;;6.90;99.90;;;;;;2628938;47;19969;-83
2023/12/27 20:30:22;;;;;;;;;;;6.90;99.90;;;;;;2629356;54;20050;-82
2023/12/27 20:32:54;;;;;;;;;;;6.80;99.90;;;;;;2629060;47;19943;-83
2023/12/27 20:35:24;;;;;;;;;;;6.80;99.90;;;;;;2632259;46;19962;-82
2023/12/27 20:37:57;;;;;;;;;;;6.80;99.90;;;;;;2629432;54;19943;-83
2023/12/27 20:40:27;;;;;;;;;;;6.70;99.90;;;;;;2630403;54;19933;-82
2023/12/27 20:42:57;;;;;;;;;;;6.80;99.90;;;;;;2630404;54;19927;-82
2023/12/27 20:45:27;;;;;;;;;;;6.70;99.90;;;;;;2630174;54;19942;-81
2023/12/27 20:47:57;;;;;;;;;;;6.80;99.90;;;;;;2629974;54;19943;-82
2023/12/27 20:50:27;;;;;;;;;;;6.80;99.90;;;;;;2630182;47;19942;-81
2023/12/27 20:53:00;;;;;;;;;;;6.70;99.90;;;;;;2630118;54;19942;-82
2023/12/27 20:55:30;;;;;;;;;;;6.60;99.90;;;;;;2629769;54;19950;-82
2023/12/27 20:58:00;;;;;;;;;;;6.70;99.90;;;;;;2629182;54;19994;-81
2023/12/27 21:00:31;;;;;;;;;;;6.70;99.90;;;;;;2629946;54;19973;-81
2023/12/27 21:03:01;;;;;;;;;;;6.70;99.90;;;;;;2630107;54;19933;-82
2023/12/27 21:05:31;;;;;;;;;;;6.70;99.90;;;;;;2630414;54;19949;-82
2023/12/27 21:08:04;;;;;;;;;;;6.60;99.90;;;;;;2629180;54;20018;-81
2023/12/27 21:10:34;;;;;;;;;;;6.60;99.90;;;;;;2618637;46;19950;-76
2023/12/27 21:13:04;;;;;;;;;;;6.70;99.90;;;;;;2616587;47;20468;-76
2023/12/27 21:15:34;;;;;;;;;;;6.60;99.90;;;;;;2619233;54;20015;-79
2023/12/27 21:18:04;;;;;;;;;;;6.60;99.90;;;;;;2624648;47;20039;-77
2023/12/27 21:20:35;;;;;;;;;;;6.50;99.90;;;;;;2626825;54;20342;-78
2023/12/27 21:23:07;;;;;;;;;;;6.50;99.90;;;;;;2621773;54;20049;-77
2023/12/27 21:25:41;;;;;;;;;;;6.50;99.90;;;;;;2616458;47;19954;-75
2023/12/27 21:28:17;;;;;;;;;;;6.50;99.90;;;;;;2617655;47;19946;-76
2023/12/27 21:30:47;;;;;;;;;;;6.40;99.90;;;;;;2615612;47;20484;-76
2023/12/27 21:33:17;;;;;;;;;;;6.50;99.90;;;;;;2617121;54;19953;-76
2023/12/27 21:35:51;;;;;;;;;;;6.40;99.90;;;;;;2615027;54;19950;-75
2023/12/27 21:38:31;;;;;;;;;;;6.30;99.90;;;;;;2617463;47;19947;-76
2023/12/27 21:41:03;;;;;;;;;;;6.30;99.90;;;;;;2615265;47;20029;-76
2023/12/27 21:43:34;;;;;;;;;;;6.20;99.90;;;;;;2615724;54;20013;-77
2023/12/27 21:46:04;;;;;;;;;;;6.20;99.90;;;;;;2616364;46;19969;-76
2023/12/27 21:48:34;;;;;;;;;;;6.20;99.90;;;;;;2617504;47;20021;-75
2023/12/27 21:51:04;;;;;;;;;;;6.20;99.90;;;;;;2614991;54;19946;-77
2023/12/27 21:53:36;;;;;;;;;;;6.20;99.90;;;;;;2615928;54;20001;-77
2023/12/27 21:56:06;;;;;;;;;;;6.10;99.90;;;;;;2616427;47;19966;-77
2023/12/27 21:58:36;;;;;;;;;;;6.20;99.90;;;;;;2619128;47;20081;-76
2023/12/27 22:01:06;;;;;;;;;;;6.20;99.90;;;;;;2620194;54;19951;-77
2023/12/27 22:03:36;;;;;;;;;;;6.10;99.90;;;;;;2621509;54;19950;-76
2023/12/27 22:06:07;;;;;;;;;;;6.10;99.90;;;;;;2617843;54;19958;-76
2023/12/27 22:08:39;;;;;;;;;;;6.10;99.90;;;;;;2619042;54;19989;-76
2023/12/27 22:11:10;;;;;;;;;;;6.10;99.90;;;;;;2618300;47;20037;-77
2023/12/27 22:13:41;;;;;;;;;;;6.10;99.90;;;;;;2616827;47;19951;-77
2023/12/27 22:16:14;;;;;;;;;;;6.00;99.90;;;;;;2616519;47;19946;-77
2023/12/27 22:18:44;;;;;;;;;;;6.00;99.90;;;;;;2614120;54;20448;-76
2023/12/27 22:21:18;;;;;;;;;;;6.00;99.90;;;;;;2614221;54;19953;-76
2023/12/27 22:23:51;;;;;;;;;;;6.00;99.90;;;;;;2615999;54;19947;-76
2023/12/27 22:26:21;;;;;;;;;;;6.00;99.90;;;;;;2623159;47;19958;-76
2023/12/27 22:28:51;;;;;;;;;;;5.90;99.90;;;;;;2619339;54;19946;-76
2023/12/27 22:31:21;;;;;;;;;;;5.90;99.90;;;;;;2614437;47;19993;-77
2023/12/27 22:33:53;;;;;;;;;;;5.80;99.90;;;;;;2614225;39;20037;-76
2023/12/27 22:36:23;;;;;;;;;;;5.80;99.90;;;;;;2613719;47;19957;-77
2023/12/27 22:38:57;;;;;;;;;;;5.80;99.90;;;;;;2617473;54;20456;-78
2023/12/27 22:41:27;;;;;;;;;;;5.80;99.90;;;;;;2618618;54;19964;-77
2023/12/27 22:43:56;;;;;;;;;;;5.90;99.90;;;;;;2619229;47;19947;-79
2023/12/27 22:46:27;;;;;;;;;;;5.90;99.90;;;;;;2618696;47;19947;-79
2023/12/27 22:48:57;;;;;;;;;;;5.80;99.90;;;;;;2618496;54;19946;-78
2023/12/27 22:51:27;;;;;;;;;;;5.80;99.90;;;;;;2618367;47;19945;-78
2023/12/27 22:54:00;;;;;;;;;;;5.90;99.90;;;;;;2617598;54;19953;-78
2023/12/27 22:56:30;;;;;;;;;;;5.70;99.90;;;;;;2622076;54;19977;-80
2023/12/27 22:59:00;;;;;;;;;;;6.70;99.90;;;;;;2619442;54;19939;-78
2023/12/27 23:01:30;;;;;;;;;;;5.70;99.90;;;;;;2619102;47;19939;-78
2023/12/27 23:04:00;;;;;;;;;;;5.80;99.90;;;;;;2618959;54;19947;-78
2023/12/27 23:06:30;;;;;;;;;;;5.80;99.90;;;;;;2618038;47;19953;-78
2023/12/27 23:09:03;;;;;;;;;;;5.80;99.90;;;;;;2617588;54;19947;-77
2023/12/27 23:11:33;;;;;;;;;;;5.80;99.90;;;;;;2618299;54;20034;-78
2023/12/27 23:14:03;;;;;;;;;;;5.80;99.90;;;;;;2619528;51;19951;-78
2023/12/27 23:16:32;;;;;;;;;;;5.60;99.90;;;;;;2618022;54;19947;-78
2023/12/27 23:19:02;;;;;;;;;;;5.50;99.90;;;;;;2618189;54;19951;-78
2023/12/27 23:21:33;;;;;;;;;;;5.50;99.90;;;;;;2619308;47;19947;-78